sensor_id;sensor_type;location;lat;lon;timestamp;pressure;altitude;pressure_sealevel;temperature;humidity
62779;BME280;48821;48.796;2.396;2022-12-11T00:00:24;101153.84;;;3.85;62.45
62779;BME280;48821;48.796;2.396;2022-12-11T00:01:34;101154.69;;;3.86;62.64
62779;BME280;48821;48.796;2.396;2022-12-11T00:02:44;101148.59;;;3.83;62.67
62779;BME280;48821;48.796;2.396;2022-12-11T00:03:55;101150.34;;;3.85;62.97
62779;BME280;48821;48.796;2.396;2022-12-11T00:05:05;101141.69;;;3.84;62.57
62779;BME280;48821;48.796;2.396;2022-12-11T00:06:18;101148.59;;;3.83;63.02
62779;BME280;48821;48.796;2.396;2022-12-11T00:07:29;101146.03;;;3.82;62.71
62779;BME280;48821;48.796;2.396;2022-12-11T00:08:40;101146.00;;;3.80;62.92
62779;BME280;48821;48.796;2.396;2022-12-11T00:09:50;101145.13;;;3.78;62.63
62779;BME280;48821;48.796;2.396;2022-12-11T00:11:01;101154.66;;;3.76;62.65
62779;BME280;48821;48.796;2.396;2022-12-11T00:12:12;101147.72;;;3.74;62.66
62779;BME280;48821;48.796;2.396;2022-12-11T00:13:22;101155.53;;;3.74;62.38
62779;BME280;48821;48.796;2.396;2022-12-11T00:14:33;101143.38;;;3.69;62.48
62779;BME280;48821;48.796;2.396;2022-12-11T00:15:43;101142.50;;;3.66;62.38
62779;BME280;48821;48.796;2.396;2022-12-11T00:16:54;101139.03;;;3.62;62.05
62779;BME280;48821;48.796;2.396;2022-12-11T00:18:04;101134.69;;;3.59;62.12
62779;BME280;48821;48.796;2.396;2022-12-11T00:19:15;101135.56;;;3.57;62.40
62779;BME280;48821;48.796;2.396;2022-12-11T00:20:25;101131.22;;;3.56;62.03
62779;BME280;48821;48.796;2.396;2022-12-11T00:21:36;101132.97;;;3.55;62.55
62779;BME280;48821;48.796;2.396;2022-12-11T00:22:46;101132.94;;;3.52;62.75
62779;BME280;48821;48.796;2.396;2022-12-11T00:23:56;101138.13;;;3.54;62.38
62779;BME280;48821;48.796;2.396;2022-12-11T00:25:07;101137.28;;;3.52;62.48
62779;BME280;48821;48.796;2.396;2022-12-11T00:26:18;101128.59;;;3.51;62.29
62779;BME280;48821;48.796;2.396;2022-12-11T00:27:28;101133.78;;;3.51;62.63
62779;BME280;48821;48.796;2.396;2022-12-11T00:28:39;101123.41;;;3.51;63.06
62779;BME280;48821;48.796;2.396;2022-12-11T00:29:49;101121.69;;;3.50;63.19
62779;BME280;48821;48.796;2.396;2022-12-11T00:31:04;101119.94;;;3.52;62.75
62779;BME280;48821;48.796;2.396;2022-12-11T00:32:15;101118.22;;;3.54;62.81
62779;BME280;48821;48.796;2.396;2022-12-11T00:33:26;101110.41;;;3.54;62.39
62779;BME280;48821;48.796;2.396;2022-12-11T00:34:36;101108.69;;;3.55;62.95
62779;BME280;48821;48.796;2.396;2022-12-11T00:35:47;101105.22;;;3.56;62.94
62779;BME280;48821;48.796;2.396;2022-12-11T00:36:57;101108.72;;;3.58;62.98
62779;BME280;48821;48.796;2.396;2022-12-11T00:38:08;101106.13;;;3.58;62.16
62779;BME280;48821;48.796;2.396;2022-12-11T00:39:22;101106.09;;;3.56;62.42
62779;BME280;48821;48.796;2.396;2022-12-11T00:40:36;101104.34;;;3.52;62.26
62779;BME280;48821;48.796;2.396;2022-12-11T00:41:46;101118.19;;;3.51;62.99
62779;BME280;48821;48.796;2.396;2022-12-11T00:42:56;101111.28;;;3.50;62.91
62779;BME280;48821;48.796;2.396;2022-12-11T00:44:07;101115.59;;;3.51;62.68
62779;BME280;48821;48.796;2.396;2022-12-11T00:45:17;101110.41;;;3.51;63.08
62779;BME280;48821;48.796;2.396;2022-12-11T00:46:28;101104.38;;;3.51;62.90
62779;BME280;48821;48.796;2.396;2022-12-11T00:47:38;101110.44;;;3.53;62.79
62779;BME280;48821;48.796;2.396;2022-12-11T00:48:48;101106.06;;;3.53;62.32
62779;BME280;48821;48.796;2.396;2022-12-11T00:49:59;101106.06;;;3.53;62.60
62779;BME280;48821;48.796;2.396;2022-12-11T00:51:09;101113.03;;;3.54;63.00
62779;BME280;48821;48.796;2.396;2022-12-11T00:52:20;101118.22;;;3.54;62.71
62779;BME280;48821;48.796;2.396;2022-12-11T00:53:31;101111.28;;;3.53;62.42
62779;BME280;48821;48.796;2.396;2022-12-11T00:54:42;101111.28;;;3.52;63.13
62779;BME280;48821;48.796;2.396;2022-12-11T00:55:52;101117.34;;;3.52;62.81
62779;BME280;48821;48.796;2.396;2022-12-11T00:57:02;101123.41;;;3.51;62.30
62779;BME280;48821;48.796;2.396;2022-12-11T00:58:13;101115.59;;;3.51;61.94
62779;BME280;48821;48.796;2.396;2022-12-11T00:59:23;101110.41;;;3.48;62.86
62779;BME280;48821;48.796;2.396;2022-12-11T01:00:34;101114.72;;;3.49;62.45
62779;BME280;48821;48.796;2.396;2022-12-11T01:01:45;101109.53;;;3.47;62.48
62779;BME280;48821;48.796;2.396;2022-12-11T01:02:55;101100.00;;;3.46;62.52
62779;BME280;48821;48.796;2.396;2022-12-11T01:04:05;101106.91;;;3.46;62.03
62779;BME280;48821;48.796;2.396;2022-12-11T01:05:16;101103.47;;;3.47;62.49
62779;BME280;48821;48.796;2.396;2022-12-11T01:06:26;101100.88;;;3.45;62.54
62779;BME280;48821;48.796;2.396;2022-12-11T01:07:37;101102.59;;;3.45;62.12
62779;BME280;48821;48.796;2.396;2022-12-11T01:08:47;101100.00;;;3.45;61.78
62779;BME280;48821;48.796;2.396;2022-12-11T01:10:18;101100.88;;;3.41;62.07
62779;BME280;48821;48.796;2.396;2022-12-11T01:11:34;101096.50;;;3.36;61.69
62779;BME280;48821;48.796;2.396;2022-12-11T01:12:45;101105.16;;;3.34;62.50
62779;BME280;48821;48.796;2.396;2022-12-11T01:13:55;101087.84;;;3.33;62.01
62779;BME280;48821;48.796;2.396;2022-12-11T01:15:06;101094.78;;;3.32;62.08
62779;BME280;48821;48.796;2.396;2022-12-11T01:16:16;101099.09;;;3.32;62.69
62779;BME280;48821;48.796;2.396;2022-12-11T01:17:26;101090.41;;;3.31;62.54
62779;BME280;48821;48.796;2.396;2022-12-11T01:18:37;101088.69;;;3.32;62.44
62779;BME280;48821;48.796;2.396;2022-12-11T01:19:48;101096.50;;;3.30;61.94
62779;BME280;48821;48.796;2.396;2022-12-11T01:20:58;101102.56;;;3.31;62.25
62779;BME280;48821;48.796;2.396;2022-12-11T01:22:08;101102.56;;;3.32;62.55
62779;BME280;48821;48.796;2.396;2022-12-11T01:23:19;101096.50;;;3.32;62.15
62779;BME280;48821;48.796;2.396;2022-12-11T01:24:29;101093.91;;;3.33;62.29
62779;BME280;48821;48.796;2.396;2022-12-11T01:25:40;101079.16;;;3.34;63.02
62779;BME280;48821;48.796;2.396;2022-12-11T01:26:50;101084.38;;;3.34;62.65
62779;BME280;48821;48.796;2.396;2022-12-11T01:28:01;101076.59;;;3.32;62.40
62779;BME280;48821;48.796;2.396;2022-12-11T01:29:11;101093.03;;;3.33;62.54
62779;BME280;48821;48.796;2.396;2022-12-11T01:30:23;101087.81;;;3.31;63.05
62779;BME280;48821;48.796;2.396;2022-12-11T01:31:34;101090.41;;;3.31;62.59
62779;BME280;48821;48.796;2.396;2022-12-11T01:32:44;101095.66;;;3.33;62.21
62779;BME280;48821;48.796;2.396;2022-12-11T01:33:55;101092.16;;;3.32;63.03
62779;BME280;48821;48.796;2.396;2022-12-11T01:35:06;101091.31;;;3.33;61.98
62779;BME280;48821;48.796;2.396;2022-12-11T01:36:19;101101.72;;;3.33;62.71
62779;BME280;48821;48.796;2.396;2022-12-11T01:37:30;101101.69;;;3.32;62.92
62779;BME280;48821;48.796;2.396;2022-12-11T01:38:41;101102.56;;;3.31;62.18
62779;BME280;48821;48.796;2.396;2022-12-11T01:39:51;101099.09;;;3.30;62.26
62779;BME280;48821;48.796;2.396;2022-12-11T01:41:01;101102.53;;;3.29;62.53
62779;BME280;48821;48.796;2.396;2022-12-11T01:42:19;101099.09;;;3.27;62.72
62779;BME280;48821;48.796;2.396;2022-12-11T01:43:30;101102.53;;;3.26;62.24
62779;BME280;48821;48.796;2.396;2022-12-11T01:45:54;101103.41;;;3.25;62.39
62779;BME280;48821;48.796;2.396;2022-12-11T01:47:04;101107.72;;;3.26;62.05
62779;BME280;48821;48.796;2.396;2022-12-11T01:48:23;101110.31;;;3.24;62.35
62779;BME280;48821;48.796;2.396;2022-12-11T01:49:35;101107.75;;;3.23;62.92
62779;BME280;48821;48.796;2.396;2022-12-11T01:50:52;101111.19;;;3.22;62.70
62779;BME280;48821;48.796;2.396;2022-12-11T01:52:10;101106.88;;;3.21;62.39
62779;BME280;48821;48.796;2.396;2022-12-11T01:53:28;101102.53;;;3.23;62.08
62779;BME280;48821;48.796;2.396;2022-12-11T01:54:41;101107.75;;;3.23;62.33
62779;BME280;48821;48.796;2.396;2022-12-11T01:55:54;101101.66;;;3.22;61.99
62779;BME280;48821;48.796;2.396;2022-12-11T01:57:06;101109.47;;;3.21;62.49
62779;BME280;48821;48.796;2.396;2022-12-11T01:58:20;101117.25;;;3.22;62.63
62779;BME280;48821;48.796;2.396;2022-12-11T01:59:35;101106.84;;;3.24;62.57
62779;BME280;48821;48.796;2.396;2022-12-11T02:00:46;101120.72;;;3.26;62.79
62779;BME280;48821;48.796;2.396;2022-12-11T02:03:13;101113.81;;;3.30;62.57
62779;BME280;48821;48.796;2.396;2022-12-11T02:04:24;101106.88;;;3.32;62.79
62779;BME280;48821;48.796;2.396;2022-12-11T02:05:35;101111.22;;;3.31;62.87
62779;BME280;48821;48.796;2.396;2022-12-11T02:06:48;101112.09;;;3.35;62.49
62779;BME280;48821;48.796;2.396;2022-12-11T02:08:00;101111.22;;;3.36;63.17
62779;BME280;48821;48.796;2.396;2022-12-11T02:09:14;101100.81;;;3.36;62.52
62779;BME280;48821;48.796;2.396;2022-12-11T02:12:25;101106.88;;;3.29;62.46
62779;BME280;48821;48.796;2.396;2022-12-11T02:13:52;101111.19;;;3.25;62.40
62779;BME280;48821;48.796;2.396;2022-12-11T02:15:18;101112.94;;;3.24;62.26
62779;BME280;48821;48.796;2.396;2022-12-11T02:16:52;101102.53;;;3.23;62.12
62779;BME280;48821;48.796;2.396;2022-12-11T02:22:01;101100.78;;;3.20;62.32
62779;BME280;48821;48.796;2.396;2022-12-11T02:26:20;101089.53;;;3.18;62.34
62779;BME280;48821;48.796;2.396;2022-12-11T02:28:55;101090.41;;;3.15;62.71
62779;BME280;48821;48.796;2.396;2022-12-11T02:30:10;101086.06;;;3.16;62.27
62779;BME280;48821;48.796;2.396;2022-12-11T02:31:39;101087.78;;;3.17;62.82
62779;BME280;48821;48.796;2.396;2022-12-11T02:32:57;101085.19;;;3.17;62.41
62779;BME280;48821;48.796;2.396;2022-12-11T02:34:19;101086.94;;;3.18;62.86
62779;BME280;48821;48.796;2.396;2022-12-11T02:35:35;101079.13;;;3.17;62.33
62779;BME280;48821;48.796;2.396;2022-12-11T02:36:51;101076.53;;;3.17;62.70
62779;BME280;48821;48.796;2.396;2022-12-11T02:38:08;101078.28;;;3.16;62.42
62779;BME280;48821;48.796;2.396;2022-12-11T02:39:20;101074.81;;;3.17;62.46
62779;BME280;48821;48.796;2.396;2022-12-11T02:40:36;101077.41;;;3.17;62.38
62779;BME280;48821;48.796;2.396;2022-12-11T02:41:50;101071.34;;;3.18;62.66
62779;BME280;48821;48.796;2.396;2022-12-11T02:43:03;101078.25;;;3.19;63.20
62779;BME280;48821;48.796;2.396;2022-12-11T02:44:18;101069.59;;;3.19;62.23
62779;BME280;48821;48.796;2.396;2022-12-11T02:45:31;101073.06;;;3.19;63.09
62779;BME280;48821;48.796;2.396;2022-12-11T02:46:43;101071.34;;;3.18;62.98
62779;BME280;48821;48.796;2.396;2022-12-11T02:47:56;101065.28;;;3.18;62.96
62779;BME280;48821;48.796;2.396;2022-12-11T02:49:09;101073.09;;;3.21;63.24
62779;BME280;48821;48.796;2.396;2022-12-11T02:50:22;101073.94;;;3.20;63.25
62779;BME280;48821;48.796;2.396;2022-12-11T02:51:38;101068.75;;;3.20;62.77
62779;BME280;48821;48.796;2.396;2022-12-11T02:52:52;101069.59;;;3.17;62.22
62779;BME280;48821;48.796;2.396;2022-12-11T02:54:05;101066.13;;;3.17;62.61
62779;BME280;48821;48.796;2.396;2022-12-11T02:55:18;101076.53;;;3.17;62.61
62779;BME280;48821;48.796;2.396;2022-12-11T02:56:33;101073.94;;;3.15;62.85
62779;BME280;48821;48.796;2.396;2022-12-11T02:58:04;101075.69;;;3.16;62.48
62779;BME280;48821;48.796;2.396;2022-12-11T02:59:38;101073.94;;;3.15;62.54
62779;BME280;48821;48.796;2.396;2022-12-11T03:00:50;101073.94;;;3.13;62.09
62779;BME280;48821;48.796;2.396;2022-12-11T03:02:01;101074.78;;;3.12;62.80
62779;BME280;48821;48.796;2.396;2022-12-11T03:03:12;101078.22;;;3.11;62.45
62779;BME280;48821;48.796;2.396;2022-12-11T03:04:23;101068.69;;;3.09;62.32
62779;BME280;48821;48.796;2.396;2022-12-11T03:05:34;101072.19;;;3.08;62.20
62779;BME280;48821;48.796;2.396;2022-12-11T03:06:48;101066.97;;;3.06;62.17
62779;BME280;48821;48.796;2.396;2022-12-11T03:08:00;101075.63;;;3.05;62.69
62779;BME280;48821;48.796;2.396;2022-12-11T03:09:11;101058.28;;;3.04;62.24
62779;BME280;48821;48.796;2.396;2022-12-11T03:10:22;101063.50;;;3.04;62.37
62779;BME280;48821;48.796;2.396;2022-12-11T03:11:32;101073.03;;;3.05;62.52
62779;BME280;48821;48.796;2.396;2022-12-11T03:12:46;101066.97;;;3.04;62.50
62779;BME280;48821;48.796;2.396;2022-12-11T03:13:57;101066.09;;;3.07;63.07
62779;BME280;48821;48.796;2.396;2022-12-11T03:15:12;101062.66;;;3.08;62.26
62779;BME280;48821;48.796;2.396;2022-12-11T03:16:38;101072.16;;;3.09;62.63
62779;BME280;48821;48.796;2.396;2022-12-11T03:18:17;101066.13;;;3.10;62.94
62779;BME280;48821;48.796;2.396;2022-12-11T03:19:40;101056.59;;;3.11;62.78
62779;BME280;48821;48.796;2.396;2022-12-11T03:21:14;101063.53;;;3.10;62.47
62779;BME280;48821;48.796;2.396;2022-12-11T03:22:43;101059.19;;;3.12;63.21
62779;BME280;48821;48.796;2.396;2022-12-11T03:24:03;101062.66;;;3.14;63.02
62779;BME280;48821;48.796;2.396;2022-12-11T03:26:29;101060.06;;;3.14;62.46
62779;BME280;48821;48.796;2.396;2022-12-11T03:27:57;101057.47;;;3.14;62.74
62779;BME280;48821;48.796;2.396;2022-12-11T03:29:16;101057.50;;;3.16;62.89
62779;BME280;48821;48.796;2.396;2022-12-11T03:30:30;101060.09;;;3.16;62.97
62779;BME280;48821;48.796;2.396;2022-12-11T03:32:35;101061.81;;;3.15;63.01
62779;BME280;48821;48.796;2.396;2022-12-11T03:33:28;101056.63;;;3.15;62.22
62779;BME280;48821;48.796;2.396;2022-12-11T03:34:56;101058.34;;;3.17;62.82
62779;BME280;48821;48.796;2.396;2022-12-11T03:36:12;101055.75;;;3.15;62.77
62779;BME280;48821;48.796;2.396;2022-12-11T03:37:25;101057.47;;;3.14;62.49
62779;BME280;48821;48.796;2.396;2022-12-11T03:38:40;101053.16;;;3.13;62.08
62779;BME280;48821;48.796;2.396;2022-12-11T03:39:55;101060.06;;;3.13;62.95
62779;BME280;48821;48.796;2.396;2022-12-11T03:41:08;101060.03;;;3.11;62.54
62779;BME280;48821;48.796;2.396;2022-12-11T03:42:22;101066.13;;;3.12;62.08
62779;BME280;48821;48.796;2.396;2022-12-11T03:43:34;101057.47;;;3.10;62.09
62779;BME280;48821;48.796;2.396;2022-12-11T03:44:48;101057.44;;;3.11;62.38
62779;BME280;48821;48.796;2.396;2022-12-11T03:46:00;101065.25;;;3.10;62.15
62779;BME280;48821;48.796;2.396;2022-12-11T03:47:12;101062.66;;;3.10;61.99
62779;BME280;48821;48.796;2.396;2022-12-11T03:48:29;101069.59;;;3.06;61.85
62779;BME280;48821;48.796;2.396;2022-12-11T03:49:42;101065.25;;;3.03;62.15
62779;BME280;48821;48.796;2.396;2022-12-11T03:50:54;101058.31;;;3.01;62.42
62779;BME280;48821;48.796;2.396;2022-12-11T03:52:06;101064.34;;;2.98;62.12
62779;BME280;48821;48.796;2.396;2022-12-11T03:53:19;101064.31;;;2.97;61.64
62779;BME280;48821;48.796;2.396;2022-12-11T03:54:30;101062.59;;;2.96;62.09
62779;BME280;48821;48.796;2.396;2022-12-11T03:55:43;101064.34;;;2.95;61.83
62779;BME280;48821;48.796;2.396;2022-12-11T03:56:57;101062.59;;;2.92;61.73
62779;BME280;48821;48.796;2.396;2022-12-11T03:58:09;101064.31;;;2.90;61.86
62779;BME280;48821;48.796;2.396;2022-12-11T03:59:19;101061.69;;;2.86;61.61
62779;BME280;48821;48.796;2.396;2022-12-11T04:00:30;101057.34;;;2.80;62.30
62779;BME280;48821;48.796;2.396;2022-12-11T04:01:41;101059.03;;;2.75;62.02
62779;BME280;48821;48.796;2.396;2022-12-11T04:02:51;101059.03;;;2.72;62.97
62779;BME280;48821;48.796;2.396;2022-12-11T04:04:20;101065.94;;;2.69;62.93
62779;BME280;48821;48.796;2.396;2022-12-11T04:05:30;101059.84;;;2.64;61.95
62779;BME280;48821;48.796;2.396;2022-12-11T04:06:41;101056.38;;;2.62;62.22
62779;BME280;48821;48.796;2.396;2022-12-11T04:07:51;101057.22;;;2.59;62.40
62779;BME280;48821;48.796;2.396;2022-12-11T04:09:02;101060.69;;;2.60;62.27
62779;BME280;48821;48.796;2.396;2022-12-11T04:10:12;101056.38;;;2.61;63.20
62779;BME280;48821;48.796;2.396;2022-12-11T04:11:23;101058.13;;;2.63;62.95
62779;BME280;48821;48.796;2.396;2022-12-11T04:12:45;101055.53;;;2.63;62.70
62779;BME280;48821;48.796;2.396;2022-12-11T04:13:55;101046.00;;;2.62;63.37
62779;BME280;48821;48.796;2.396;2022-12-11T04:15:24;101046.00;;;2.59;62.39
62779;BME280;48821;48.796;2.396;2022-12-11T04:16:34;101039.91;;;2.57;62.45
62779;BME280;48821;48.796;2.396;2022-12-11T04:17:45;101045.97;;;2.56;63.62
62779;BME280;48821;48.796;2.396;2022-12-11T04:19:14;101043.38;;;2.56;63.27
62779;BME280;48821;48.796;2.396;2022-12-11T04:20:43;101039.06;;;2.56;62.22
62779;BME280;48821;48.796;2.396;2022-12-11T04:22:14;101039.03;;;2.55;63.29
62779;BME280;48821;48.796;2.396;2022-12-11T04:23:43;101048.56;;;2.54;62.96
62779;BME280;48821;48.796;2.396;2022-12-11T04:25:12;101043.38;;;2.54;63.40
62779;BME280;48821;48.796;2.396;2022-12-11T04:26:22;101039.03;;;2.53;62.96
62779;BME280;48821;48.796;2.396;2022-12-11T04:27:32;101049.41;;;2.55;62.89
62779;BME280;48821;48.796;2.396;2022-12-11T04:28:58;101044.22;;;2.55;63.47
62779;BME280;48821;48.796;2.396;2022-12-11T04:30:12;101047.69;;;2.57;62.79
62779;BME280;48821;48.796;2.396;2022-12-11T04:31:23;101049.41;;;2.55;63.54
62779;BME280;48821;48.796;2.396;2022-12-11T04:32:33;101041.63;;;2.55;62.36
62779;BME280;48821;48.796;2.396;2022-12-11T04:33:44;101045.09;;;2.54;62.34
62779;BME280;48821;48.796;2.396;2022-12-11T04:34:54;101039.03;;;2.52;62.99
62779;BME280;48821;48.796;2.396;2022-12-11T04:36:06;101032.97;;;2.51;62.56
62779;BME280;48821;48.796;2.396;2022-12-11T04:37:16;101036.41;;;2.50;63.32
62779;BME280;48821;48.796;2.396;2022-12-11T04:38:27;101041.59;;;2.47;63.24
62779;BME280;48821;48.796;2.396;2022-12-11T04:39:37;101039.88;;;2.44;62.84
62779;BME280;48821;48.796;2.396;2022-12-11T04:40:47;101032.03;;;2.40;62.01
62779;BME280;48821;48.796;2.396;2022-12-11T04:41:57;101043.25;;;2.34;62.71
62779;BME280;48821;48.796;2.396;2022-12-11T04:43:08;101039.78;;;2.32;62.83
62779;BME280;48821;48.796;2.396;2022-12-11T04:44:18;101041.47;;;2.30;63.19
62779;BME280;48821;48.796;2.396;2022-12-11T04:45:29;101044.94;;;2.29;62.99
62779;BME280;48821;48.796;2.396;2022-12-11T04:46:39;101038.88;;;2.28;63.13
62779;BME280;48821;48.796;2.396;2022-12-11T04:47:49;101031.97;;;2.29;62.97
62779;BME280;48821;48.796;2.396;2022-12-11T04:49:00;101032.81;;;2.28;63.58
62779;BME280;48821;48.796;2.396;2022-12-11T04:50:12;101036.28;;;2.30;62.97
62779;BME280;48821;48.796;2.396;2022-12-11T04:51:24;101026.78;;;2.27;63.11
62779;BME280;48821;48.796;2.396;2022-12-11T04:52:34;101031.97;;;2.25;63.28
62779;BME280;48821;48.796;2.396;2022-12-11T04:53:45;101032.84;;;2.24;62.72
62779;BME280;48821;48.796;2.396;2022-12-11T04:54:55;101034.53;;;2.25;63.91
62779;BME280;48821;48.796;2.396;2022-12-11T04:56:07;101022.44;;;2.28;63.70
62779;BME280;48821;48.796;2.396;2022-12-11T04:57:18;101019.88;;;2.29;63.25
62779;BME280;48821;48.796;2.396;2022-12-11T04:58:30;101018.13;;;2.30;63.57
62779;BME280;48821;48.796;2.396;2022-12-11T04:59:40;101016.44;;;2.32;63.93
62779;BME280;48821;48.796;2.396;2022-12-11T05:00:51;101006.06;;;2.33;63.23
62779;BME280;48821;48.796;2.396;2022-12-11T05:02:02;101005.22;;;2.36;63.06
62779;BME280;48821;48.796;2.396;2022-12-11T05:03:13;101008.66;;;2.35;62.91
62779;BME280;48821;48.796;2.396;2022-12-11T05:04:24;101010.41;;;2.38;63.38
62779;BME280;48821;48.796;2.396;2022-12-11T05:05:35;101011.28;;;2.38;64.19
62779;BME280;48821;48.796;2.396;2022-12-11T05:06:48;101010.44;;;2.41;63.94
62779;BME280;48821;48.796;2.396;2022-12-11T05:07:58;101019.09;;;2.41;62.84
62779;BME280;48821;48.796;2.396;2022-12-11T05:09:10;101014.78;;;2.43;63.62
62779;BME280;48821;48.796;2.396;2022-12-11T05:10:21;101019.13;;;2.44;63.40
62779;BME280;48821;48.796;2.396;2022-12-11T05:11:31;101015.63;;;2.45;62.97
62779;BME280;48821;48.796;2.396;2022-12-11T05:12:42;101010.44;;;2.45;62.96
62779;BME280;48821;48.796;2.396;2022-12-11T05:13:52;101019.09;;;2.47;63.03
62779;BME280;48821;48.796;2.396;2022-12-11T05:15:03;101017.38;;;2.50;63.38
62779;BME280;48821;48.796;2.396;2022-12-11T05:16:15;101012.22;;;2.51;63.19
62779;BME280;48821;48.796;2.396;2022-12-11T05:17:26;101015.69;;;2.52;62.60
62779;BME280;48821;48.796;2.396;2022-12-11T05:18:36;101008.75;;;2.52;62.97
62779;BME280;48821;48.796;2.396;2022-12-11T05:19:48;101002.72;;;2.52;62.94
62779;BME280;48821;48.796;2.396;2022-12-11T05:21:04;101013.09;;;2.53;62.77
62779;BME280;48821;48.796;2.396;2022-12-11T05:22:16;101007.91;;;2.55;63.30
62779;BME280;48821;48.796;2.396;2022-12-11T05:23:27;101013.09;;;2.55;63.21
62779;BME280;48821;48.796;2.396;2022-12-11T05:24:37;101005.31;;;2.55;62.37
62779;BME280;48821;48.796;2.396;2022-12-11T05:26:10;101002.72;;;2.56;62.70
62779;BME280;48821;48.796;2.396;2022-12-11T05:27:20;101003.56;;;2.57;62.98
62779;BME280;48821;48.796;2.396;2022-12-11T05:28:33;101003.56;;;2.57;63.37
62779;BME280;48821;48.796;2.396;2022-12-11T05:29:43;101000.13;;;2.58;62.73
62779;BME280;48821;48.796;2.396;2022-12-11T05:30:58;101004.44;;;2.57;63.00
62779;BME280;48821;48.796;2.396;2022-12-11T05:32:09;101002.72;;;2.56;62.38
62779;BME280;48821;48.796;2.396;2022-12-11T05:33:19;101010.50;;;2.58;63.10
62779;BME280;48821;48.796;2.396;2022-12-11T05:34:29;101006.19;;;2.58;62.50
62779;BME280;48821;48.796;2.396;2022-12-11T05:35:46;101004.47;;;2.59;62.99
62779;BME280;48821;48.796;2.396;2022-12-11T05:36:56;101008.78;;;2.58;63.23
62779;BME280;48821;48.796;2.396;2022-12-11T05:38:07;101009.66;;;2.59;62.97
62779;BME280;48821;48.796;2.396;2022-12-11T05:39:17;101007.91;;;2.59;63.00
62779;BME280;48821;48.796;2.396;2022-12-11T05:40:27;101014.84;;;2.61;62.58
62779;BME280;48821;48.796;2.396;2022-12-11T05:41:38;101015.72;;;2.61;62.65
62779;BME280;48821;48.796;2.396;2022-12-11T05:42:49;101013.09;;;2.58;62.41
62779;BME280;48821;48.796;2.396;2022-12-11T05:43:59;101007.06;;;2.56;62.31
62779;BME280;48821;48.796;2.396;2022-12-11T05:45:10;101013.94;;;2.52;63.03
62779;BME280;48821;48.796;2.396;2022-12-11T05:46:25;101013.03;;;2.47;61.73
62779;BME280;48821;48.796;2.396;2022-12-11T05:47:36;101007.84;;;2.42;62.97
62779;BME280;48821;48.796;2.396;2022-12-11T05:48:48;101006.97;;;2.40;62.31
62779;BME280;48821;48.796;2.396;2022-12-11T05:49:59;101013.88;;;2.36;63.19
62779;BME280;48821;48.796;2.396;2022-12-11T05:51:09;101016.44;;;2.33;62.65
62779;BME280;48821;48.796;2.396;2022-12-11T05:52:20;101012.94;;;2.28;62.41
62779;BME280;48821;48.796;2.396;2022-12-11T05:53:31;101008.59;;;2.25;62.08
62779;BME280;48821;48.796;2.396;2022-12-11T05:54:41;101011.22;;;2.24;61.83
62779;BME280;48821;48.796;2.396;2022-12-11T05:55:51;101004.25;;;2.23;63.05
62779;BME280;48821;48.796;2.396;2022-12-11T05:57:02;101007.72;;;2.23;63.00
62779;BME280;48821;48.796;2.396;2022-12-11T05:58:12;101005.13;;;2.23;62.83
62779;BME280;48821;48.796;2.396;2022-12-11T05:59:22;101011.16;;;2.22;62.83
62779;BME280;48821;48.796;2.396;2022-12-11T06:00:33;101019.84;;;2.21;62.25
62779;BME280;48821;48.796;2.396;2022-12-11T06:01:43;101009.44;;;2.20;63.02
62779;BME280;48821;48.796;2.396;2022-12-11T06:02:53;101018.09;;;2.19;63.23
62779;BME280;48821;48.796;2.396;2022-12-11T06:04:05;101013.78;;;2.19;62.36
62779;BME280;48821;48.796;2.396;2022-12-11T06:05:16;101009.44;;;2.17;62.71
62779;BME280;48821;48.796;2.396;2022-12-11T06:06:27;101003.41;;;2.19;63.24
62779;BME280;48821;48.796;2.396;2022-12-11T06:07:37;101010.31;;;2.20;63.58
62779;BME280;48821;48.796;2.396;2022-12-11T06:08:51;101005.16;;;2.22;63.25
62779;BME280;48821;48.796;2.396;2022-12-11T06:10:02;101003.41;;;2.22;63.11
62779;BME280;48821;48.796;2.396;2022-12-11T06:11:12;101004.25;;;2.23;63.05
62779;BME280;48821;48.796;2.396;2022-12-11T06:12:23;100999.94;;;2.20;63.02
62779;BME280;48821;48.796;2.396;2022-12-11T06:13:33;101007.72;;;2.19;63.32
62779;BME280;48821;48.796;2.396;2022-12-11T06:14:44;100999.94;;;2.17;62.93
62779;BME280;48821;48.796;2.396;2022-12-11T06:15:59;100998.19;;;2.18;62.61
62779;BME280;48821;48.796;2.396;2022-12-11T06:17:09;100999.94;;;2.17;62.76
62779;BME280;48821;48.796;2.396;2022-12-11T06:18:20;100997.34;;;2.17;62.95
62779;BME280;48821;48.796;2.396;2022-12-11T06:19:30;101001.66;;;2.18;62.93
62779;BME280;48821;48.796;2.396;2022-12-11T06:20:40;101003.41;;;2.19;63.25
62779;BME280;48821;48.796;2.396;2022-12-11T06:21:51;101002.56;;;2.22;62.96
62779;BME280;48821;48.796;2.396;2022-12-11T06:23:02;101004.25;;;2.23;62.83
62779;BME280;48821;48.796;2.396;2022-12-11T06:24:12;100999.94;;;2.23;63.19
62779;BME280;48821;48.796;2.396;2022-12-11T06:25:23;100997.34;;;2.25;62.44
62779;BME280;48821;48.796;2.396;2022-12-11T06:26:33;100996.50;;;2.28;62.68
62779;BME280;48821;48.796;2.396;2022-12-11T06:27:43;100994.78;;;2.30;63.02
62779;BME280;48821;48.796;2.396;2022-12-11T06:28:54;100990.47;;;2.30;63.16
62779;BME280;48821;48.796;2.396;2022-12-11T06:30:04;100990.50;;;2.32;62.80
62779;BME280;48821;48.796;2.396;2022-12-11T06:31:16;100988.78;;;2.34;62.99
62779;BME280;48821;48.796;2.396;2022-12-11T06:32:26;100978.38;;;2.32;63.17
62779;BME280;48821;48.796;2.396;2022-12-11T06:33:37;100984.44;;;2.33;63.02
62779;BME280;48821;48.796;2.396;2022-12-11T06:34:47;100975.78;;;2.32;62.57
62779;BME280;48821;48.796;2.396;2022-12-11T06:36:05;100973.19;;;2.32;62.62
62779;BME280;48821;48.796;2.396;2022-12-11T06:37:15;100980.97;;;2.31;63.28
62779;BME280;48821;48.796;2.396;2022-12-11T06:38:26;100983.56;;;2.31;63.29
62779;BME280;48821;48.796;2.396;2022-12-11T06:39:36;100981.81;;;2.30;63.42
62779;BME280;48821;48.796;2.396;2022-12-11T06:40:54;100978.38;;;2.29;63.04